Thunder radar more information blitzortung!


Radar de pluja more information rain snow radar


Visita la nostra xarxa de llocs de meteo:

Template documentation
and downloads

And another site



Wind From: 11-12-2017 11:00 Until: 14:59 warning for: Wind Level: Yellow info button

Pagina Historial Weather Underground text

Diari Resum Novembre 16, 2017 Unitats:  Mètric    Imperial   Tant
« Previous Dia
SegĂźent Dia »
Diari Setmana Mensual Anual Personalitzada
  Maxima: Minima: Media:
Temperatura: 15.3 °C 2.5 °C 10.2 °C
Punt de rosada: 7.3 °C -4.5 °C 1.1 °C
Humitat: 62 % 48 % 53 %
Wind Speed: 11.1 km/h 0.0 km/h 3.2 km/h
RĂ fegues de vent: 11.1 km/h - -
Vent:- - South
Pression baro: 1021.9 hPa 1018.8 hPa -
Precipitacions: 0.0 mm    
Historical Graphs
 
 
Dades de taula per Novembre 16, 2017
Temps Temperatura Punt de rosada Pression baro Vent Wind Speed RĂ fegues de vent Humitat Rainfall Rate (Hourly)
00:04 5.2 °C -3.9 °C 1018.8 hPa Calm     52 % 0.0 mm
00:05 2.9 °C -4.1 °C 1018.8 hPa Calm   3.2 km/h 60 % 0.0 mm
00:09 5.1 °C -3.9 °C 1018.8 hPa Calm     52 % 0.0 mm
00:15 2.9 °C -4.3 °C 1018.8 hPa West 1.6 km/h 3.2 km/h 59 % 0.0 mm
00:25 2.9 °C -4.1 °C 1018.8 hPa Calm   3.2 km/h 60 % 0.0 mm
00:35 3.0 °C -4.0 °C 1018.8 hPa SW 3.2 km/h 3.2 km/h 60 % 0.0 mm
00:45 2.6 °C -4.4 °C 1018.8 hPa SW 1.6 km/h 3.2 km/h 60 % 0.0 mm
00:55 2.6 °C -4.4 °C 1018.8 hPa SW 1.6 km/h 1.6 km/h 60 % 0.0 mm
01:05 2.6 °C -4.2 °C 1018.8 hPa Calm   1.6 km/h 61 % 0.0 mm
01:15 2.8 °C -4.2 °C 1018.8 hPa Calm   3.2 km/h 60 % 0.0 mm
01:25 2.8 °C -4.0 °C 1019.9 hPa Calm   1.6 km/h 61 % 0.0 mm
01:35 2.5 °C -4.5 °C 1019.9 hPa WSW 3.2 km/h 4.8 km/h 60 % 0.0 mm
01:45 2.5 °C -4.3 °C 1019.9 hPa WSW 1.6 km/h 3.2 km/h 61 % 0.0 mm
01:55 2.6 °C -4.4 °C 1019.9 hPa SW 3.2 km/h 3.2 km/h 60 % 0.0 mm
02:05 2.7 °C -4.1 °C 1019.9 hPa Calm   3.2 km/h 61 % 0.0 mm
02:15 3.1 °C -3.7 °C 1019.9 hPa Calm     61 % 0.0 mm
02:25 3.9 °C -2.7 °C 1019.9 hPa Calm     62 % 0.0 mm
02:35 4.0 °C -3.1 °C 1019.9 hPa Calm     60 % 0.0 mm
02:45 4.3 °C -3.0 °C 1019.9 hPa SW 1.6 km/h 1.6 km/h 59 % 0.0 mm
02:55 5.3 °C -2.1 °C 1019.9 hPa Calm   1.6 km/h 59 % 0.0 mm
03:05 6.0 °C -1.9 °C 1019.9 hPa Calm   1.6 km/h 57 % 0.0 mm
03:15 6.4 °C -1.5 °C 1018.8 hPa Calm   1.6 km/h 57 % 0.0 mm
03:25 7.2 °C -1.0 °C 1020.9 hPa Calm     56 % 0.0 mm
03:35 7.2 °C -1.2 °C 1020.9 hPa SW 1.6 km/h 1.6 km/h 55 % 0.0 mm
03:55 6.5 °C -1.9 °C 1020.9 hPa SW 1.6 km/h 3.2 km/h 55 % 0.0 mm
04:05 7.6 °C -1.1 °C 1020.9 hPa SW 1.6 km/h 3.2 km/h 54 % 0.0 mm
04:15 8.3 °C -0.5 °C 1020.9 hPa Calm   3.2 km/h 54 % 0.0 mm
04:25 8.8 °C 0.0 °C 1020.9 hPa Calm   4.8 km/h 54 % 0.0 mm
04:35 9.2 °C 0.4 °C 1020.9 hPa SE 1.6 km/h 3.2 km/h 54 % 0.0 mm
10:36 9.6 °C 0.7 °C 1021.9 hPa SSE 1.9 km/h   54 % 0.0 mm
10:37 9.7 °C 0.8 °C 1021.9 hPa SE 3.7 km/h 3.7 km/h 54 % 0.0 mm
10:42 9.6 °C 0.5 °C 1021.9 hPa East 3.7 km/h 3.7 km/h 53 % 0.0 mm
10:47 10.1 °C 0.9 °C 1021.9 hPa WNW 1.9 km/h   53 % 0.0 mm
10:52 10.0 °C 0.6 °C 1021.9 hPa ESE 3.7 km/h 3.7 km/h 52 % 0.0 mm
10:57 10.1 °C 0.7 °C 1021.9 hPa East 5.6 km/h 5.6 km/h 52 % 0.0 mm
11:02 10.4 °C 0.9 °C 1021.9 hPa ENE 3.7 km/h 3.7 km/h 52 % 0.0 mm
11:07 10.6 °C 1.2 °C 1021.9 hPa WNW 3.7 km/h 3.7 km/h 52 % 0.0 mm
11:12 10.6 °C 1.2 °C 1021.9 hPa NW 3.7 km/h 3.7 km/h 52 % 0.0 mm
11:17 10.9 °C 1.4 °C 1021.9 hPa NNE 3.7 km/h 3.7 km/h 52 % 0.0 mm
11:22 11.0 °C 1.5 °C 1021.9 hPa NNE 3.7 km/h 3.7 km/h 52 % 0.0 mm
11:27 11.2 °C 1.7 °C 1021.9 hPa SE 3.7 km/h 3.7 km/h 52 % 0.0 mm
11:32 11.7 °C 2.2 °C 1021.9 hPa East 3.7 km/h 3.7 km/h 52 % 0.0 mm
11:42 12.3 °C 2.4 °C 1021.9 hPa East 3.7 km/h 3.7 km/h 51 % 0.0 mm
11:47 12.0 °C 2.2 °C 1021.9 hPa ENE 5.6 km/h 5.6 km/h 51 % 0.0 mm
11:52 12.1 °C 2.3 °C 1021.9 hPa ENE 3.7 km/h 3.7 km/h 51 % 0.0 mm
11:57 12.0 °C 2.2 °C 1021.9 hPa East 3.7 km/h 3.7 km/h 51 % 0.0 mm
12:02 12.3 °C 2.4 °C 1021.9 hPa ESE 5.6 km/h 5.6 km/h 51 % 0.0 mm
12:07 12.5 °C 2.6 °C 1021.9 hPa East 5.0 km/h 5.0 km/h 51 % 0.0 mm
12:12 12.6 °C 2.4 °C 1021.9 hPa ENE 7.4 km/h 7.4 km/h 50 % 0.0 mm
12:17 13.0 °C 3.1 °C 1021.9 hPa WSW 2.3 km/h   51 % 0.0 mm
12:22 13.0 °C 3.1 °C 1021.9 hPa ESE 3.7 km/h 3.7 km/h 51 % 0.0 mm
12:27 13.3 °C 3.1 °C 1021.9 hPa ENE 5.6 km/h 5.6 km/h 50 % 0.0 mm
12:32 13.3 °C 3.1 °C 1021.9 hPa ESE 5.6 km/h 5.6 km/h 50 % 0.0 mm
12:37 13.2 °C 3.0 °C 1020.9 hPa ESE 4.7 km/h 4.7 km/h 50 % 0.0 mm
12:42 13.6 °C 3.4 °C 1020.9 hPa NNE 2.3 km/h 2.3 km/h 50 % 0.0 mm
12:47 13.8 °C 3.6 °C 1020.9 hPa SSE 3.9 km/h 3.9 km/h 50 % 0.0 mm
12:52 14.0 °C 3.7 °C 1020.9 hPa ESE 5.6 km/h 5.6 km/h 50 % 0.0 mm
12:57 13.8 °C 3.6 °C 1020.9 hPa ENE 3.9 km/h 3.9 km/h 50 % 0.0 mm
13:02 13.9 °C 3.6 °C 1020.9 hPa East 3.7 km/h 3.7 km/h 50 % 0.0 mm
13:07 14.3 °C 4.0 °C 1019.9 hPa East 1.9 km/h 1.9 km/h 50 % 0.0 mm
13:12 14.0 °C 3.7 °C 1019.9 hPa ESE 5.6 km/h 5.6 km/h 50 % 0.0 mm
13:17 14.2 °C 3.9 °C 1019.9 hPa ESE 5.6 km/h 5.6 km/h 50 % 0.0 mm
13:22 14.3 °C 4.0 °C 1019.9 hPa ESE 5.6 km/h 5.6 km/h 50 % 0.0 mm
13:27 14.4 °C 4.1 °C 1019.9 hPa SW 5.6 km/h 5.6 km/h 50 % 0.0 mm
13:32 15.1 °C 5.1 °C 1019.9 hPa SW 3.7 km/h 3.7 km/h 51 % 0.0 mm
13:37 15.1 °C 4.7 °C 1019.9 hPa ESE 3.7 km/h 3.7 km/h 50 % 0.0 mm
13:42 15.1 °C 4.7 °C 1019.9 hPa East 2.6 km/h   50 % 0.0 mm
13:47 15.1 °C 4.7 °C 1019.9 hPa ESE 5.6 km/h 5.6 km/h 50 % 0.0 mm
13:52 15.0 °C 4.7 °C 1019.9 hPa ESE 7.4 km/h 7.4 km/h 50 % 0.0 mm
13:57 15.1 °C 4.7 °C 1019.9 hPa WSW 5.8 km/h 5.8 km/h 50 % 0.0 mm
14:02 15.1 °C 4.4 °C 1019.9 hPa East 7.4 km/h 7.4 km/h 49 % 0.0 mm
14:07 15.2 °C 4.6 °C 1019.9 hPa WSW 4.7 km/h 4.7 km/h 49 % 0.0 mm
14:12 15.3 °C 4.6 °C 1019.9 hPa SW 3.5 km/h 3.5 km/h 49 % 0.0 mm
14:17 15.2 °C 4.6 °C 1019.9 hPa ESE 7.4 km/h 7.4 km/h 49 % 0.0 mm
14:22 15.3 °C 4.6 °C 1019.9 hPa ESE 5.6 km/h 5.6 km/h 49 % 0.0 mm
14:27 15.1 °C 4.2 °C 1019.9 hPa ESE 7.4 km/h 7.4 km/h 48 % 0.0 mm
14:32 15.1 °C 4.2 °C 1019.9 hPa East 7.4 km/h 7.4 km/h 48 % 0.0 mm
14:37 15.1 °C 4.2 °C 1019.9 hPa ESE 7.4 km/h 7.4 km/h 48 % 0.0 mm
14:42 15.1 °C 4.2 °C 1019.9 hPa ESE 5.6 km/h 5.6 km/h 48 % 0.0 mm
14:47 15.1 °C 4.2 °C 1019.9 hPa SE 5.6 km/h 5.6 km/h 48 % 0.0 mm
14:52 15.2 °C 4.3 °C 1019.9 hPa ESE 5.6 km/h 5.6 km/h 48 % 0.0 mm
14:57 15.2 °C 4.6 °C 1019.9 hPa SE 5.6 km/h 5.6 km/h 49 % 0.0 mm
15:02 15.2 °C 4.6 °C 1019.9 hPa East 7.4 km/h 7.4 km/h 49 % 0.0 mm
15:07 15.2 °C 4.6 °C 1019.9 hPa ESE 7.4 km/h 7.4 km/h 49 % 0.0 mm
15:12 15.2 °C 4.6 °C 1019.9 hPa East 7.4 km/h 7.4 km/h 49 % 0.0 mm
15:17 15.2 °C 4.8 °C 1019.9 hPa ESE 6.4 km/h 6.4 km/h 50 % 0.0 mm
15:22 15.2 °C 4.8 °C 1019.9 hPa ESE 7.4 km/h 7.4 km/h 50 % 0.0 mm
15:27 15.2 °C 5.1 °C 1019.9 hPa ESE 10.0 km/h 10.0 km/h 51 % 0.0 mm
15:37 15.2 °C 5.1 °C 1019.9 hPa ESE 9.3 km/h 9.3 km/h 51 % 0.0 mm
15:42 15.1 °C 5.3 °C 1019.9 hPa ESE 7.4 km/h 7.4 km/h 52 % 0.0 mm
15:47 15.1 °C 5.3 °C 1019.9 hPa ESE 5.6 km/h 5.6 km/h 52 % 0.0 mm
15:52 15.2 °C 5.7 °C 1019.9 hPa ESE 9.3 km/h 9.3 km/h 53 % 0.0 mm
15:57 15.1 °C 5.8 °C 1019.9 hPa ESE 7.4 km/h 7.4 km/h 54 % 0.0 mm
16:02 14.9 °C 5.9 °C 1019.9 hPa ENE 11.1 km/h 11.1 km/h 55 % 0.0 mm
16:07 14.8 °C 6.3 °C 1019.9 hPa East 8.7 km/h 8.7 km/h 57 % 0.0 mm
16:12 14.7 °C 6.8 °C 1019.9 hPa ESE 11.1 km/h 11.1 km/h 59 % 0.0 mm
16:22 14.8 °C 7.1 °C 1019.9 hPa ESE 7.4 km/h 7.4 km/h 60 % 0.0 mm
16:23 14.8 °C 7.1 °C 1019.9 hPa ESE 7.4 km/h 7.4 km/h 60 % 0.0 mm
16:28 14.7 °C 7.3 °C 1019.9 hPa ESE 7.4 km/h 7.4 km/h 61 % 0.0 mm
16:33 14.6 °C 7.2 °C 1019.9 hPa ESE 7.4 km/h 7.4 km/h 61 % 0.0 mm
16:38 14.7 °C 7.3 °C 1019.9 hPa SSW 5.6 km/h 5.6 km/h 61 % 0.0 mm
16:43 15.0 °C 7.3 °C 1019.9 hPa SW 7.4 km/h 7.4 km/h 60 % 0.0 mm
16:48 15.2 °C 6.7 °C 1019.9 hPa WSW 5.6 km/h 5.6 km/h 57 % 0.0 mm
16:53 15.1 °C 6.4 °C 1019.9 hPa SSW 7.4 km/h 7.4 km/h 56 % 0.0 mm
16:58 15.0 °C 6.0 °C 1019.9 hPa SSW 4.7 km/h 4.7 km/h 55 % 0.0 mm
17:03 14.9 °C 5.9 °C 1019.9 hPa SW 3.7 km/h 3.7 km/h 55 % 0.0 mm
17:13 14.4 °C 5.2 °C 1019.9 hPa SW 7.4 km/h 7.4 km/h 54 % 0.0 mm
17:18 14.3 °C 5.1 °C 1019.9 hPa SW 3.9 km/h 3.9 km/h 54 % 0.0 mm
17:23 14.0 °C 4.8 °C 1019.9 hPa SW 5.6 km/h 5.6 km/h 54 % 0.0 mm
17:28 13.8 °C 4.7 °C 1019.9 hPa SW 5.8 km/h 5.8 km/h 54 % 0.0 mm
17:33 13.6 °C 4.4 °C 1019.9 hPa SW 3.7 km/h 3.7 km/h 54 % 0.0 mm
17:38 13.4 °C 4.0 °C 1019.9 hPa SW 3.7 km/h 3.7 km/h 53 % 0.0 mm
17:43 13.2 °C 3.8 °C 1019.9 hPa WSW 3.7 km/h 3.7 km/h 53 % 0.0 mm
17:48 13.0 °C 3.6 °C 1019.9 hPa WSW 3.7 km/h 3.7 km/h 53 % 0.0 mm
17:58 12.6 °C 3.3 °C 1019.9 hPa WSW 3.5 km/h 3.5 km/h 53 % 0.0 mm
18:03 12.5 °C 3.2 °C 1019.9 hPa SW 5.6 km/h 5.6 km/h 53 % 0.0 mm
18:08 12.3 °C 3.0 °C 1019.9 hPa SW 3.7 km/h 3.7 km/h 53 % 0.0 mm
18:13 12.2 °C 2.9 °C 1019.9 hPa WSW 3.7 km/h 3.7 km/h 53 % 0.0 mm
18:18 12.1 °C 2.8 °C 1019.9 hPa WSW 3.7 km/h 3.7 km/h 53 % 0.0 mm
18:23 12.0 °C 2.7 °C 1019.9 hPa SW 3.7 km/h 3.7 km/h 53 % 0.0 mm
18:28 11.9 °C 2.6 °C 1019.9 hPa WSW 3.7 km/h 3.7 km/h 53 % 0.0 mm
18:33 11.8 °C 2.5 °C 1019.9 hPa WSW 3.7 km/h 3.7 km/h 53 % 0.0 mm
18:38 11.8 °C 2.5 °C 1019.9 hPa WSW 2.3 km/h 2.3 km/h 53 % 0.0 mm
18:43 11.8 °C 2.3 °C 1019.9 hPa WSW 3.7 km/h 3.7 km/h 52 % 0.0 mm
18:48 11.7 °C 2.2 °C 1019.9 hPa WSW 1.9 km/h 1.9 km/h 52 % 0.0 mm
18:53 11.6 °C 2.1 °C 1019.9 hPa WSW 1.9 km/h 1.9 km/h 52 % 0.0 mm
19:03 11.3 °C 1.8 °C 1020.9 hPa WSW 2.3 km/h 2.3 km/h 52 % 0.0 mm
19:08 11.2 °C 1.7 °C 1020.9 hPa WSW 2.3 km/h 2.3 km/h 52 % 0.0 mm
19:13 11.1 °C 1.6 °C 1020.9 hPa SW 3.7 km/h 3.7 km/h 52 % 0.0 mm
19:18 11.1 °C 1.6 °C 1020.9 hPa SW 2.3 km/h 2.3 km/h 52 % 0.0 mm
19:23 11.0 °C 1.5 °C 1020.9 hPa Calm     52 % 0.0 mm
19:28 10.9 °C 1.4 °C 1020.9 hPa SW 1.9 km/h   52 % 0.0 mm
19:33 10.8 °C 1.3 °C 1020.9 hPa Calm     52 % 0.0 mm
19:38 10.8 °C 1.3 °C 1020.9 hPa WSW 3.7 km/h 3.7 km/h 52 % 0.0 mm
19:43 10.7 °C 1.5 °C 1020.9 hPa WSW 2.3 km/h   53 % 0.0 mm
19:48 10.7 °C 1.2 °C 1020.9 hPa WSW 4.2 km/h 4.2 km/h 52 % 0.0 mm
19:53 10.7 °C 1.2 °C 1020.9 hPa West 4.2 km/h 4.2 km/h 52 % 0.0 mm
19:58 10.5 °C 1.1 °C 1020.9 hPa SW 3.9 km/h 3.9 km/h 52 % 0.0 mm
20:03 10.4 °C 0.9 °C 1020.9 hPa WSW 4.7 km/h 4.7 km/h 52 % 0.0 mm
20:08 10.4 °C 0.9 °C 1020.9 hPa WSW 5.6 km/h 5.6 km/h 52 % 0.0 mm
20:13 10.3 °C 0.9 °C 1020.9 hPa WSW 5.6 km/h 5.6 km/h 52 % 0.0 mm
20:18 10.2 °C 0.5 °C 1021.9 hPa WSW 4.2 km/h 4.2 km/h 51 % 0.0 mm
20:23 10.2 °C 0.5 °C 1021.9 hPa WSW 1.9 km/h 1.9 km/h 51 % 0.0 mm
20:28 10.0 °C 0.3 °C 1021.9 hPa SW 1.9 km/h   51 % 0.0 mm
20:33 9.9 °C 0.2 °C 1021.9 hPa WSW 1.9 km/h 1.9 km/h 51 % 0.0 mm
20:38 9.8 °C 0.1 °C 1021.9 hPa WSW 1.9 km/h   51 % 0.0 mm
20:43 9.7 °C 0.1 °C 1021.9 hPa Calm     51 % 0.0 mm
20:48 9.7 °C -0.2 °C 1021.9 hPa Calm     50 % 0.0 mm
20:53 9.6 °C -0.3 °C 1021.9 hPa Calm     50 % 0.0 mm
20:58 9.5 °C -0.4 °C 1021.9 hPa Calm     50 % 0.0 mm
21:03 9.4 °C -0.2 °C 1020.9 hPa Calm     51 % 0.0 mm
21:08 9.4 °C -0.5 °C 1020.9 hPa West 3.7 km/h 3.7 km/h 50 % 0.0 mm
21:13 9.4 °C -0.5 °C 1020.9 hPa WNW 1.9 km/h 1.9 km/h 50 % 0.0 mm
21:15 4.9 °C -2.4 °C 1019.9 hPa NNW 1.6 km/h 3.2 km/h 59 % 0.0 mm
21:18 9.4 °C -0.5 °C 1021.9 hPa WNW 1.9 km/h   50 % 0.0 mm
21:23 9.5 °C -0.4 °C 1021.9 hPa WNW 1.9 km/h   50 % 0.0 mm
21:25 4.8 °C -2.6 °C 1019.9 hPa Calm   3.2 km/h 59 % 0.0 mm
21:28 9.3 °C -0.6 °C 1021.9 hPa Calm     50 % 0.0 mm
21:33 9.2 °C -0.7 °C 1021.9 hPa SSE 4.2 km/h 4.2 km/h 50 % 0.0 mm
21:35 4.8 °C -2.6 °C 1019.9 hPa North 1.6 km/h 3.2 km/h 59 % 0.0 mm
21:38 8.8 °C -1.1 °C 1021.9 hPa SW 1.9 km/h   50 % 0.0 mm
21:43 8.6 °C -1.3 °C 1021.9 hPa SW 1.9 km/h   50 % 0.0 mm
21:45 4.7 °C -2.7 °C 1019.9 hPa Calm   1.6 km/h 59 % 0.0 mm
21:48 8.4 °C -1.2 °C 1021.9 hPa Calm     51 % 0.0 mm
21:53 8.2 °C -1.3 °C 1021.9 hPa Calm     51 % 0.0 mm
21:55 4.5 °C -2.8 °C 1019.9 hPa WNW 1.6 km/h 1.6 km/h 59 % 0.0 mm
21:58 8.1 °C -1.4 °C 1021.9 hPa SW 2.6 km/h 2.6 km/h 51 % 0.0 mm
22:03 8.0 °C -1.6 °C 1021.9 hPa Calm     51 % 0.0 mm
22:05 4.5 °C -2.8 °C 1019.9 hPa Calm     59 % 0.0 mm
22:08 7.9 °C -1.6 °C 1021.9 hPa Calm     51 % 0.0 mm
22:13 7.7 °C -1.8 °C 1021.9 hPa Calm     51 % 0.0 mm
22:15 4.5 °C -2.8 °C 1019.9 hPa Calm   1.6 km/h 59 % 0.0 mm
22:18 7.7 °C -1.8 °C 1021.9 hPa SW 1.9 km/h   51 % 0.0 mm
22:23 7.6 °C -1.7 °C 1021.9 hPa Calm     52 % 0.0 mm
22:25 4.5 °C -2.8 °C 1019.9 hPa Calm   1.6 km/h 59 % 0.0 mm
22:28 7.4 °C -1.8 °C 1021.9 hPa Calm     52 % 0.0 mm
22:29 7.4 °C -1.8 °C 1021.9 hPa Calm     52 % 0.0 mm
22:34 7.3 °C -1.9 °C 1020.9 hPa Calm     52 % 0.0 mm
22:35 4.3 °C -3.0 °C 1019.9 hPa Calm   1.6 km/h 59 % 0.0 mm
22:39 7.3 °C -1.9 °C 1020.9 hPa NE 3.2 km/h   52 % 0.0 mm
22:44 7.1 °C -2.1 °C 1020.9 hPa NE 3.7 km/h 3.7 km/h 52 % 0.0 mm
22:45 4.3 °C -3.0 °C 1019.9 hPa Calm     59 % 0.0 mm
22:49 7.0 °C -1.9 °C 1020.9 hPa ENE 1.9 km/h 1.9 km/h 53 % 0.0 mm
22:54 7.0 °C -1.9 °C 1020.9 hPa Calm     53 % 0.0 mm
22:55 4.3 °C -3.0 °C 1019.9 hPa WNW 1.6 km/h 1.6 km/h 59 % 0.0 mm
22:59 6.9 °C -2.1 °C 1020.9 hPa Calm     53 % 0.0 mm
23:04 6.9 °C -2.1 °C 1020.9 hPa WSW 2.6 km/h 2.6 km/h 53 % 0.0 mm
23:05 4.4 °C -2.9 °C 1019.9 hPa Calm   1.6 km/h 59 % 0.0 mm
23:09 6.8 °C -1.9 °C 1020.9 hPa Calm     54 % 0.0 mm
23:14 6.7 °C -1.9 °C 1020.9 hPa WSW 1.9 km/h 1.9 km/h 54 % 0.0 mm
23:15 4.3 °C -3.0 °C 1019.9 hPa North 1.6 km/h 3.2 km/h 59 % 0.0 mm
23:19 6.7 °C -1.9 °C 1021.9 hPa WSW 1.9 km/h   54 % 0.0 mm
23:24 6.7 °C -1.9 °C 1021.9 hPa WNW 1.9 km/h 1.9 km/h 54 % 0.0 mm
23:25 4.2 °C -3.1 °C 1019.9 hPa Calm   1.6 km/h 59 % 0.0 mm
23:29 6.7 °C -1.9 °C 1021.9 hPa ENE 2.6 km/h 2.6 km/h 54 % 0.0 mm
23:30 6.7 °C -1.9 °C 1021.9 hPa ENE 2.6 km/h 2.6 km/h 54 % 0.0 mm
23:35 6.6 °C -2.1 °C 1020.9 hPa NE 1.9 km/h 1.9 km/h 54 % 0.0 mm
23:40 6.7 °C -1.9 °C 1020.9 hPa NE 2.3 km/h 2.3 km/h 54 % 0.0 mm
23:45 6.9 °C -1.8 °C 1020.9 hPa NW 3.2 km/h 3.2 km/h 54 % 0.0 mm
23:50 7.0 °C -1.7 °C 1020.9 hPa Calm     54 % 0.0 mm
23:55 7.0 °C -1.4 °C 1020.9 hPa NE 3.7 km/h 3.7 km/h 55 % 0.0 mm
Meteo Sesrovires
Elogis d' Weather Underground - 3.5 mb

Guio original per  Jim McMurry - jmcmurry@mwt.net Adaptat per a la plantilla per  Wim van der Kuil - Leuven-Template.eu

Trobareu la nostra informacio del temps tambe a:

Weather Underground

AWEKAS